Time;durP1;ratioP1;P1;durP2;ratioP2;P2;SDS_P1;SDS_P2;PMS_P1;PMS_P2;Temp;Humidity;BMP_temperature;BMP_pressure;BME280_temperature;BME280_humidity;BME280_pressure;Samples;Min_cycle;Max_cycle;Signal;HPM_P1;HPM_P2
2023/12/31 00:00:04;;;;;;;;;;;15.10;99.90;;;;;;5090157;28;20364;-81
2023/12/31 00:02:30;;;;;;;;;;;15.10;99.90;;;;;;5091395;28;20003;-81
2023/12/31 00:04:56;;;;;;;;;;;15.20;99.90;;;;;;5092489;28;20005;-81
2023/12/31 00:07:22;;;;;;;;;;;15.20;99.90;;;;;;5090929;28;19908;-81
2023/12/31 00:09:47;;;;;;;;;;;15.20;99.90;;;;;;5091880;28;20214;-81
2023/12/31 00:12:14;;;;;;;;;;;15.20;99.90;;;;;;5091264;28;20236;-82
2023/12/31 00:14:39;;;;;;;;;;;15.30;99.90;;;;;;5091099;28;19908;-81
2023/12/31 00:17:05;;;;;;;;;;;15.40;99.90;;;;;;5091159;28;19915;-81
2023/12/31 00:19:31;;;;;;;;;;;15.40;99.90;;;;;;5091030;28;20004;-81
2023/12/31 00:21:57;;;;;;;;;;;15.40;99.90;;;;;;5091313;28;20007;-83
2023/12/31 00:24:23;;;;;;;;;;;15.40;99.90;;;;;;5091820;28;19908;-82
2023/12/31 00:26:49;;;;;;;;;;;15.40;99.90;;;;;;5091506;28;19961;-82
2023/12/31 00:29:14;;;;;;;;;;;15.40;99.90;;;;;;5090966;28;19969;-82
2023/12/31 00:31:40;;;;;;;;;;;15.40;99.90;;;;;;5091030;28;19928;-82
2023/12/31 00:34:08;;;;;;;;;;;15.40;99.90;;;;;;5090844;28;19962;-81
2023/12/31 00:36:34;;;;;;;;;;;15.40;99.90;;;;;;5091142;28;19931;-81
2023/12/31 00:39:00;;;;;;;;;;;15.40;99.90;;;;;;5089493;28;20068;-81
2023/12/31 00:41:26;;;;;;;;;;;15.30;99.90;;;;;;5091024;28;19953;-82
2023/12/31 00:43:51;;;;;;;;;;;15.30;99.90;;;;;;5089263;28;20368;-82
2023/12/31 00:46:17;;;;;;;;;;;15.30;99.90;;;;;;5090860;28;19915;-82
2023/12/31 00:48:43;;;;;;;;;;;15.30;99.90;;;;;;5091125;28;19943;-82
2023/12/31 00:51:09;;;;;;;;;;;15.40;99.90;;;;;;5090785;28;20023;-82
2023/12/31 00:53:35;;;;;;;;;;;15.40;99.90;;;;;;5094966;28;19956;-81
2023/12/31 00:56:01;;;;;;;;;;;15.30;99.90;;;;;;5094715;28;19930;-81
2023/12/31 00:58:27;;;;;;;;;;;15.30;99.90;;;;;;5095229;28;20363;-82
2023/12/31 01:00:53;;;;;;;;;;;15.30;99.90;;;;;;5095463;28;19918;-81
2023/12/31 01:03:19;;;;;;;;;;;15.40;99.90;;;;;;5090935;28;20379;-81
2023/12/31 01:05:45;;;;;;;;;;;15.30;99.90;;;;;;5074097;28;19954;-80
2023/12/31 01:08:11;;;;;;;;;;;15.30;99.90;;;;;;5073898;28;19912;-81
2023/12/31 01:10:37;;;;;;;;;;;15.30;99.90;;;;;;5073780;28;19912;-80
2023/12/31 01:13:02;;;;;;;;;;;15.30;99.90;;;;;;5073840;28;19962;-80
2023/12/31 01:15:28;;;;;;;;;;;15.20;99.90;;;;;;5072121;28;19915;-80
2023/12/31 01:17:54;;;;;;;;;;;15.10;99.90;;;;;;5074025;28;19987;-82
2023/12/31 01:20:20;;;;;;;;;;;15.10;99.90;;;;;;5073678;28;20289;-81
2023/12/31 01:22:46;;;;;;;;;;;15.00;99.90;;;;;;5072435;28;19914;-81
2023/12/31 01:25:12;;;;;;;;;;;14.90;99.90;;;;;;5073775;28;19908;-81
2023/12/31 01:27:37;;;;;;;;;;;14.90;99.90;;;;;;5073885;28;19909;-80
2023/12/31 01:30:04;;;;;;;;;;;14.80;99.90;;;;;;5073428;28;19958;-81
2023/12/31 01:32:29;;;;;;;;;;;14.90;99.90;;;;;;5074328;28;19915;-80
2023/12/31 01:34:58;;;;;;;;;;;14.90;99.90;;;;;;5091372;28;19908;-81
2023/12/31 01:37:24;;;;;;;;;;;14.90;99.90;;;;;;5093745;28;20421;-81
2023/12/31 01:39:50;;;;;;;;;;;14.90;99.90;;;;;;5092929;28;19908;-82
2023/12/31 01:42:16;;;;;;;;;;;14.90;99.90;;;;;;5094081;28;19913;-80
2023/12/31 01:44:41;;;;;;;;;;;14.90;99.90;;;;;;5093747;28;19946;-81
2023/12/31 01:47:07;;;;;;;;;;;14.90;99.90;;;;;;5092175;28;19908;-81
2023/12/31 01:49:33;;;;;;;;;;;14.90;99.90;;;;;;5093530;28;19909;-81
2023/12/31 01:51:59;;;;;;;;;;;15.00;99.90;;;;;;5093559;28;19912;-82
2023/12/31 01:54:26;;;;;;;;;;;15.00;99.90;;;;;;5093513;28;20355;-81
2023/12/31 01:56:53;;;;;;;;;;;15.10;99.90;;;;;;5093623;28;19908;-81
2023/12/31 01:59:19;;;;;;;;;;;15.10;99.90;;;;;;5093252;28;19916;-80
2023/12/31 02:01:45;;;;;;;;;;;15.10;99.90;;;;;;5093337;28;20024;-78
2023/12/31 02:04:11;;;;;;;;;;;15.10;99.90;;;;;;5092077;28;19919;-80
2023/12/31 02:06:39;;;;;;;;;;;15.10;99.90;;;;;;5093092;28;20288;-81
2023/12/31 02:09:06;;;;;;;;;;;15.10;99.90;;;;;;5091714;28;20360;-79
2023/12/31 02:11:32;;;;;;;;;;;15.10;99.90;;;;;;5093136;28;19916;-81
2023/12/31 02:13:58;;;;;;;;;;;15.10;99.90;;;;;;5092887;28;20372;-80
2023/12/31 02:16:25;;;;;;;;;;;15.20;99.90;;;;;;5093264;28;20048;-81
2023/12/31 02:18:51;;;;;;;;;;;15.10;99.90;;;;;;5093185;28;19914;-81
2023/12/31 02:21:16;;;;;;;;;;;15.00;99.90;;;;;;5092873;28;19951;-82
2023/12/31 02:23:43;;;;;;;;;;;15.00;99.90;;;;;;5091440;28;19912;-81
2023/12/31 02:26:10;;;;;;;;;;;15.00;99.90;;;;;;5092963;28;19947;-81
2023/12/31 02:28:36;;;;;;;;;;;15.00;99.90;;;;;;5092730;28;19919;-81
2023/12/31 02:31:02;;;;;;;;;;;15.00;99.90;;;;;;5091264;28;19916;-81
2023/12/31 02:33:28;;;;;;;;;;;15.10;99.90;;;;;;5092785;28;19951;-78
2023/12/31 02:35:54;;;;;;;;;;;15.10;99.90;;;;;;5092604;28;19961;-81
2023/12/31 02:38:21;;;;;;;;;;;15.20;99.90;;;;;;5093166;28;19919;-81
2023/12/31 02:40:47;;;;;;;;;;;15.20;99.90;;;;;;5091133;28;20074;-81
2023/12/31 02:43:13;;;;;;;;;;;15.20;99.90;;;;;;5090968;28;20077;-81
2023/12/31 02:45:39;;;;;;;;;;;15.20;99.90;;;;;;5091005;28;19953;-81
2023/12/31 02:48:05;;;;;;;;;;;15.20;99.90;;;;;;5092309;28;19912;-81
2023/12/31 02:50:33;;;;;;;;;;;15.20;99.90;;;;;;5092181;28;19916;-81
2023/12/31 02:52:59;;;;;;;;;;;15.20;99.90;;;;;;5091234;28;19972;-81
2023/12/31 02:55:25;;;;;;;;;;;15.20;99.90;;;;;;5092702;28;19953;-81
2023/12/31 02:57:51;;;;;;;;;;;15.10;99.90;;;;;;5093224;28;20314;-82
2023/12/31 03:00:17;;;;;;;;;;;15.00;99.90;;;;;;5092322;28;19908;-81
2023/12/31 03:02:43;;;;;;;;;;;15.00;99.90;;;;;;5092286;28;19908;-81
2023/12/31 03:05:09;;;;;;;;;;;14.90;99.90;;;;;;5092314;28;19995;-81
2023/12/31 03:07:35;;;;;;;;;;;14.80;99.90;;;;;;5090835;28;20287;-81
2023/12/31 03:10:01;;;;;;;;;;;14.80;99.90;;;;;;5092611;28;19919;-81
2023/12/31 03:12:26;;;;;;;;;;;14.70;99.90;;;;;;5091969;28;19942;-79
2023/12/31 03:14:52;;;;;;;;;;;14.70;99.90;;;;;;5091905;28;19915;-81
2023/12/31 03:17:18;;;;;;;;;;;14.70;99.90;;;;;;5092015;28;19908;-81
2023/12/31 03:19:44;;;;;;;;;;;14.60;99.90;;;;;;5092123;28;20264;-81
2023/12/31 03:22:10;;;;;;;;;;;14.70;99.90;;;;;;5090110;28;20022;-81
2023/12/31 03:24:35;;;;;;;;;;;14.60;99.90;;;;;;5090276;28;19947;-81
2023/12/31 03:27:01;;;;;;;;;;;14.60;99.90;;;;;;5091940;28;20338;-80
2023/12/31 03:29:27;;;;;;;;;;;14.60;99.90;;;;;;5091539;28;19915;-80
2023/12/31 03:31:53;;;;;;;;;;;14.50;99.90;;;;;;5090576;28;19917;-81
2023/12/31 03:34:19;;;;;;;;;;;14.50;99.90;;;;;;5089973;28;20007;-81
2023/12/31 03:36:46;;;;;;;;;;;14.50;99.90;;;;;;5089976;28;19935;-81
2023/12/31 03:39:13;;;;;;;;;;;14.50;99.90;;;;;;5091574;28;20451;-81
2023/12/31 03:41:38;;;;;;;;;;;14.50;99.90;;;;;;5090132;28;19948;-81
2023/12/31 03:44:04;;;;;;;;;;;14.40;99.90;;;;;;5091188;28;19956;-81
2023/12/31 03:46:30;;;;;;;;;;;14.40;99.90;;;;;;5089915;28;19920;-81
2023/12/31 03:48:56;;;;;;;;;;;14.40;99.90;;;;;;5091242;28;19939;-81
2023/12/31 03:51:22;;;;;;;;;;;14.40;99.90;;;;;;5091239;28;20010;-83
2023/12/31 03:53:48;;;;;;;;;;;14.50;99.90;;;;;;5089668;28;19908;-82
2023/12/31 03:56:14;;;;;;;;;;;14.50;99.90;;;;;;5091634;28;19908;-82
2023/12/31 03:58:41;;;;;;;;;;;14.50;99.90;;;;;;5089645;28;19908;-82
2023/12/31 04:01:07;;;;;;;;;;;14.60;99.90;;;;;;5089549;28;19908;-82
2023/12/31 04:03:33;;;;;;;;;;;14.60;99.90;;;;;;5091392;28;20365;-82
2023/12/31 04:05:58;;;;;;;;;;;14.60;99.90;;;;;;5091060;28;19960;-81
2023/12/31 04:08:24;;;;;;;;;;;14.70;99.90;;;;;;5091274;28;19909;-81
2023/12/31 04:10:50;;;;;;;;;;;14.70;99.90;;;;;;5091639;28;19942;-82
2023/12/31 04:13:19;;;;;;;;;;;14.80;99.90;;;;;;5091647;28;19985;-81
2023/12/31 04:15:45;;;;;;;;;;;14.80;99.90;;;;;;5091175;28;19938;-82
2023/12/31 04:18:10;;;;;;;;;;;14.80;99.90;;;;;;5091420;28;20298;-81
2023/12/31 04:20:36;;;;;;;;;;;14.90;99.90;;;;;;5089769;28;19957;-81
2023/12/31 04:23:03;;;;;;;;;;;14.80;99.90;;;;;;5091150;28;19995;-82
2023/12/31 04:25:28;;;;;;;;;;;14.80;99.90;;;;;;5091189;28;19931;-82
2023/12/31 04:27:54;;;;;;;;;;;14.90;99.90;;;;;;5092698;28;20357;-82
2023/12/31 04:30:20;;;;;;;;;;;14.90;99.90;;;;;;5093185;28;20351;-82
2023/12/31 04:32:46;;;;;;;;;;;14.80;99.90;;;;;;5095021;28;19990;-81
2023/12/31 04:35:12;;;;;;;;;;;14.70;99.90;;;;;;5094809;28;20362;-81
2023/12/31 04:37:37;;;;;;;;;;;14.60;99.90;;;;;;5094662;28;20280;-82
2023/12/31 04:40:04;;;;;;;;;;;14.60;99.90;;;;;;5094953;28;19912;-82
2023/12/31 04:42:30;;;;;;;;;;;14.60;99.90;;;;;;5095025;28;19908;-82
2023/12/31 04:44:56;;;;;;;;;;;14.50;99.90;;;;;;5094464;28;19973;-82
2023/12/31 04:47:21;;;;;;;;;;;14.40;99.90;;;;;;5095588;28;19908;-82
2023/12/31 04:49:47;;;;;;;;;;;14.30;99.90;;;;;;5099141;28;20020;-83
2023/12/31 04:52:13;;;;;;;;;;;14.30;99.90;;;;;;5098893;28;19912;-80
2023/12/31 04:54:40;;;;;;;;;;;14.30;99.90;;;;;;5097470;28;19908;-82
2023/12/31 04:57:06;;;;;;;;;;;14.30;99.90;;;;;;5096812;28;19915;-82
2023/12/31 04:59:32;;;;;;;;;;;14.40;99.90;;;;;;5095179;28;19908;-82
2023/12/31 05:01:58;;;;;;;;;;;14.50;99.90;;;;;;5095422;28;19915;-81
2023/12/31 05:04:24;;;;;;;;;;;14.50;99.90;;;;;;5093082;28;20008;-81
2023/12/31 05:06:49;;;;;;;;;;;14.40;99.90;;;;;;5094790;28;20293;-82
2023/12/31 05:09:15;;;;;;;;;;;14.40;99.90;;;;;;5094514;28;19920;-82
2023/12/31 05:11:41;;;;;;;;;;;14.40;99.90;;;;;;5094689;28;19969;-82
2023/12/31 05:14:07;;;;;;;;;;;14.30;99.90;;;;;;5094548;28;19908;-82
2023/12/31 05:16:33;;;;;;;;;;;14.30;99.90;;;;;;5094394;28;19908;-82
2023/12/31 05:19:00;;;;;;;;;;;14.30;99.90;;;;;;5092895;28;19908;-81
2023/12/31 05:21:26;;;;;;;;;;;14.30;99.90;;;;;;5094499;28;19917;-81
2023/12/31 05:23:52;;;;;;;;;;;14.30;99.90;;;;;;5094119;28;19966;-82
2023/12/31 05:26:18;;;;;;;;;;;14.20;99.90;;;;;;5094367;28;19908;-82
2023/12/31 05:28:44;;;;;;;;;;;14.30;99.90;;;;;;5093988;28;19919;-82
2023/12/31 05:31:10;;;;;;;;;;;14.20;99.90;;;;;;5093143;28;19917;-82
2023/12/31 05:33:37;;;;;;;;;;;14.20;99.90;;;;;;5092019;28;19915;-82
2023/12/31 05:36:04;;;;;;;;;;;14.20;99.90;;;;;;5092296;28;19949;-82
2023/12/31 05:38:30;;;;;;;;;;;14.20;99.90;;;;;;5092425;28;19920;-82
2023/12/31 05:40:56;;;;;;;;;;;14.10;99.90;;;;;;5093932;28;19923;-81
2023/12/31 05:43:21;;;;;;;;;;;14.10;99.90;;;;;;5094098;28;19912;-82
2023/12/31 05:45:47;;;;;;;;;;;14.10;99.90;;;;;;5093882;28;20089;-82
2023/12/31 05:48:13;;;;;;;;;;;14.00;99.90;;;;;;5093920;28;19977;-82
2023/12/31 05:50:39;;;;;;;;;;;14.00;99.90;;;;;;5094081;28;20010;-82
2023/12/31 05:53:05;;;;;;;;;;;14.00;99.90;;;;;;5092441;28;19962;-80
2023/12/31 05:55:31;;;;;;;;;;;14.00;99.90;;;;;;5092184;28;20345;-81
2023/12/31 05:57:57;;;;;;;;;;;14.00;99.90;;;;;;5094131;28;19916;-82
2023/12/31 06:00:23;;;;;;;;;;;14.00;99.90;;;;;;5093558;28;19940;-81
2023/12/31 06:02:49;;;;;;;;;;;14.00;99.90;;;;;;5093785;28;19930;-81
2023/12/31 06:05:15;;;;;;;;;;;14.00;99.90;;;;;;5093360;28;20002;-81
2023/12/31 06:07:41;;;;;;;;;;;14.10;99.90;;;;;;5093221;28;19919;-82
2023/12/31 06:10:07;;;;;;;;;;;14.10;99.90;;;;;;5093118;28;19992;-81
2023/12/31 06:12:33;;;;;;;;;;;14.10;99.90;;;;;;5092272;28;20232;-81
2023/12/31 06:15:06;;;;;;;;;;;14.10;99.90;;;;;;5092032;28;20389;-81
2023/12/31 06:17:35;;;;;;;;;;;14.10;99.90;;;;;;5093720;28;19947;-81
2023/12/31 06:20:02;;;;;;;;;;;14.10;99.90;;;;;;5093329;28;19908;-82
2023/12/31 06:22:28;;;;;;;;;;;14.10;99.90;;;;;;5093579;28;19918;-82
2023/12/31 06:24:54;;;;;;;;;;;14.10;99.90;;;;;;5093420;28;19908;-82
2023/12/31 06:27:20;;;;;;;;;;;14.10;99.90;;;;;;5092912;28;19908;-82
2023/12/31 06:29:45;;;;;;;;;;;14.20;99.90;;;;;;5090891;28;19969;-81
2023/12/31 06:32:11;;;;;;;;;;;14.20;99.90;;;;;;5092657;28;19964;-82
2023/12/31 06:34:37;;;;;;;;;;;14.20;99.90;;;;;;5092613;28;20003;-82
2023/12/31 06:37:03;;;;;;;;;;;14.20;99.90;;;;;;5090838;28;19927;-81
2023/12/31 06:39:29;;;;;;;;;;;14.10;99.90;;;;;;5090904;28;19977;-81
2023/12/31 06:41:55;;;;;;;;;;;14.10;99.90;;;;;;5092578;28;19949;-81
2023/12/31 06:44:21;;;;;;;;;;;14.00;99.90;;;;;;5092622;28;19918;-82
2023/12/31 06:46:47;;;;;;;;;;;14.00;99.90;;;;;;5093158;28;19998;-82
2023/12/31 06:49:13;;;;;;;;;;;14.10;99.90;;;;;;5092283;28;20224;-82
2023/12/31 06:51:39;;;;;;;;;;;14.10;99.90;;;;;;5092551;28;20333;-82
2023/12/31 06:54:05;;;;;;;;;;;14.10;99.90;;;;;;5092285;28;19920;-82
2023/12/31 06:56:31;;;;;;;;;;;14.10;99.90;;;;;;5092220;28;19928;-83
2023/12/31 06:58:57;;;;;;;;;;;14.10;99.90;;;;;;5091493;28;19931;-81
2023/12/31 07:01:22;;;;;;;;;;;14.20;99.90;;;;;;5090598;28;19912;-81
2023/12/31 07:03:48;;;;;;;;;;;14.30;99.90;;;;;;5090533;28;19908;-82
2023/12/31 07:06:14;;;;;;;;;;;14.20;99.90;;;;;;5092407;28;20293;-81
2023/12/31 07:08:40;;;;;;;;;;;14.20;99.90;;;;;;5091950;28;20386;-83
2023/12/31 07:11:06;;;;;;;;;;;14.20;99.90;;;;;;5091926;28;19978;-81
2023/12/31 07:13:31;;;;;;;;;;;14.30;99.90;;;;;;5092882;28;19914;-81
2023/12/31 07:15:58;;;;;;;;;;;14.30;99.90;;;;;;5090727;28;19915;-81
2023/12/31 07:18:24;;;;;;;;;;;14.30;99.90;;;;;;5090743;28;20007;-81
2023/12/31 07:20:50;;;;;;;;;;;14.40;99.90;;;;;;5092290;28;19943;-82
2023/12/31 07:23:15;;;;;;;;;;;14.50;99.90;;;;;;5092387;28;19919;-81
2023/12/31 07:25:41;;;;;;;;;;;14.50;99.90;;;;;;5090763;28;19943;-83
2023/12/31 07:28:07;;;;;;;;;;;14.50;99.90;;;;;;5092397;28;19968;-82
2023/12/31 07:30:33;;;;;;;;;;;14.50;99.90;;;;;;5090838;28;19919;-82
2023/12/31 07:32:59;;;;;;;;;;;14.60;99.90;;;;;;5090658;28;19916;-82
2023/12/31 07:35:24;;;;;;;;;;;14.60;99.90;;;;;;5090846;28;20020;-82
2023/12/31 07:37:52;;;;;;;;;;;14.60;99.90;;;;;;5090477;28;19929;-82
2023/12/31 07:40:17;;;;;;;;;;;14.70;99.90;;;;;;5092347;28;20003;-82
2023/12/31 07:42:43;;;;;;;;;;;14.70;99.90;;;;;;5092459;28;19960;-82
2023/12/31 07:45:09;;;;;;;;;;;14.70;99.90;;;;;;5090102;28;20356;-82
2023/12/31 07:47:35;;;;;;;;;;;14.80;99.90;;;;;;5092193;28;19920;-81
2023/12/31 07:50:02;;;;;;;;;;;14.80;99.90;;;;;;5092031;28;19976;-82
2023/12/31 07:52:28;;;;;;;;;;;14.90;99.90;;;;;;5092517;28;19991;-83
2023/12/31 07:54:54;;;;;;;;;;;14.90;99.90;;;;;;5091983;28;19954;-82
2023/12/31 07:57:20;;;;;;;;;;;15.00;99.90;;;;;;5091916;28;19992;-82
2023/12/31 07:59:46;;;;;;;;;;;15.00;99.90;;;;;;5091649;28;19938;-82
2023/12/31 08:02:12;;;;;;;;;;;15.10;99.90;;;;;;5092195;28;19916;-81
2023/12/31 08:04:37;;;;;;;;;;;15.30;99.90;;;;;;5097088;28;19951;-84
2023/12/31 08:07:05;;;;;;;;;;;15.40;99.90;;;;;;5096484;28;19909;-82
2023/12/31 08:09:31;;;;;;;;;;;15.40;99.90;;;;;;5095993;28;19920;-82
2023/12/31 08:11:56;;;;;;;;;;;15.50;99.90;;;;;;5096365;28;19916;-82
2023/12/31 08:14:22;;;;;;;;;;;15.40;99.90;;;;;;5095832;28;19908;-82
2023/12/31 08:16:48;;;;;;;;;;;15.30;99.90;;;;;;5095834;28;20006;-82
2023/12/31 08:19:14;;;;;;;;;;;15.40;99.90;;;;;;5094237;28;19915;-82
2023/12/31 08:21:40;;;;;;;;;;;15.40;99.90;;;;;;5094419;28;20003;-82
2023/12/31 08:24:06;;;;;;;;;;;15.40;99.90;;;;;;5095894;28;20046;-81
2023/12/31 08:26:32;;;;;;;;;;;15.50;99.90;;;;;;5095533;28;19908;-82
2023/12/31 08:28:59;;;;;;;;;;;15.50;99.90;;;;;;5095459;28;19969;-82
2023/12/31 08:31:26;;;;;;;;;;;15.50;99.90;;;;;;5093273;28;20299;-82
2023/12/31 08:33:53;;;;;;;;;;;15.60;99.90;;;;;;5095331;28;19915;-82
2023/12/31 08:36:18;;;;;;;;;;;15.50;99.90;;;;;;5095382;28;20007;-82
2023/12/31 08:38:44;;;;;;;;;;;15.50;99.90;;;;;;5095616;28;19912;-83
2023/12/31 08:41:10;;;;;;;;;;;15.60;99.90;;;;;;5095406;28;19908;-82
2023/12/31 08:43:36;;;;;;;;;;;15.70;99.90;;;;;;5095662;28;20089;-82
2023/12/31 08:46:03;;;;;;;;;;;15.70;99.90;;;;;;5095188;28;19918;-82
2023/12/31 08:48:29;;;;;;;;;;;15.80;99.90;;;;;;5093951;28;20275;-82
2023/12/31 08:50:55;;;;;;;;;;;16.00;99.90;;;;;;5093800;28;20024;-82
2023/12/31 08:53:20;;;;;;;;;;;16.10;99.90;;;;;;5094020;28;19957;-83
2023/12/31 08:55:48;;;;;;;;;;;16.20;99.90;;;;;;5095371;28;19924;-81
2023/12/31 08:58:14;;;;;;;;;;;16.40;99.90;;;;;;5094993;28;19916;-82
2023/12/31 09:00:41;;;;;;;;;;;16.40;99.90;;;;;;5095171;28;19912;-83
2023/12/31 09:03:06;;;;;;;;;;;16.50;99.90;;;;;;5093782;28;19939;-83
2023/12/31 09:05:32;;;;;;;;;;;16.50;99.90;;;;;;5095329;28;19908;-82
2023/12/31 09:07:58;;;;;;;;;;;16.50;99.90;;;;;;5095211;28;19912;-82
2023/12/31 09:10:25;;;;;;;;;;;16.60;99.90;;;;;;5095717;28;19912;-83
2023/12/31 09:12:51;;;;;;;;;;;16.60;99.90;;;;;;5093246;28;19973;-82
2023/12/31 09:15:17;;;;;;;;;;;16.80;99.90;;;;;;5095277;28;19980;-83
2023/12/31 09:17:44;;;;;;;;;;;16.80;99.90;;;;;;5093500;28;19908;-83
2023/12/31 09:20:10;;;;;;;;;;;16.90;99.90;;;;;;5095465;28;19908;-82
2023/12/31 09:22:36;;;;;;;;;;;17.00;99.90;;;;;;5093675;28;20336;-83
2023/12/31 09:25:02;;;;;;;;;;;17.20;99.90;;;;;;5095413;28;19980;-84
2023/12/31 09:27:28;;;;;;;;;;;17.30;99.90;;;;;;5095316;28;20010;-84
2023/12/31 09:29:53;;;;;;;;;;;17.30;99.90;;;;;;5093782;28;19912;-84
2023/12/31 09:32:19;;;;;;;;;;;17.30;99.90;;;;;;5095045;28;19919;-84
2023/12/31 09:34:45;;;;;;;;;;;17.50;99.90;;;;;;5094318;28;19908;-85
2023/12/31 09:37:16;;;;;;;;;;;17.60;99.90;;;;;;5094518;28;19920;-84
2023/12/31 09:39:42;;;;;;;;;;;17.90;99.90;;;;;;5093520;28;20202;-83
2023/12/31 09:42:12;;;;;;;;;;;18.00;99.90;;;;;;5097754;28;20398;-81
2023/12/31 09:44:39;;;;;;;;;;;18.40;99.90;;;;;;5108311;28;19959;-80
2023/12/31 09:47:06;;;;;;;;;;;18.30;99.90;;;;;;5100345;28;20268;-81
2023/12/31 09:49:33;;;;;;;;;;;18.20;99.90;;;;;;5099985;28;19908;-82
2023/12/31 09:52:01;;;;;;;;;;;18.50;99.90;;;;;;5093531;28;19988;-82
2023/12/31 09:54:27;;;;;;;;;;;18.70;99.90;;;;;;5094290;28;19958;-82
2023/12/31 09:56:55;;;;;;;;;;;18.50;99.90;;;;;;5093779;28;20012;-83
2023/12/31 09:59:21;;;;;;;;;;;18.50;99.90;;;;;;5092237;28;19908;-83
2023/12/31 10:01:46;;;;;;;;;;;18.40;99.90;;;;;;5094276;28;19912;-83
2023/12/31 10:04:13;;;;;;;;;;;18.30;99.90;;;;;;5093544;28;19927;-83
2023/12/31 10:06:39;;;;;;;;;;;18.10;99.90;;;;;;5092872;28;20244;-83
2023/12/31 10:09:06;;;;;;;;;;;18.00;99.90;;;;;;5095032;28;20364;-81
2023/12/31 10:11:32;;;;;;;;;;;18.00;99.90;;;;;;5093313;28;19974;-81
2023/12/31 10:13:58;;;;;;;;;;;18.00;99.90;;;;;;5093821;28;19916;-81
2023/12/31 10:16:33;;;;;;;;;;;18.10;99.90;;;;;;5091627;28;20331;-82
2023/12/31 10:18:59;;;;;;;;;;;18.20;99.90;;;;;;5091764;28;20282;-82
2023/12/31 10:21:25;;;;;;;;;;;18.40;99.90;;;;;;5093322;28;20008;-82
2023/12/31 10:23:52;;;;;;;;;;;18.40;99.90;;;;;;5091112;28;19931;-82
2023/12/31 10:26:17;;;;;;;;;;;18.40;99.90;;;;;;5093033;28;19954;-83
2023/12/31 10:28:43;;;;;;;;;;;18.40;99.90;;;;;;5093018;28;19923;-82
2023/12/31 10:31:10;;;;;;;;;;;18.50;99.90;;;;;;5093062;28;19920;-82
2023/12/31 10:33:37;;;;;;;;;;;18.60;99.90;;;;;;5091683;28;19922;-82
2023/12/31 10:36:04;;;;;;;;;;;18.60;99.90;;;;;;5092728;28;19935;-81
2023/12/31 10:38:42;;;;;;;;;;;18.60;99.90;;;;;;5093366;28;20272;-82
2023/12/31 10:41:15;;;;;;;;;;;18.80;99.90;;;;;;5093320;28;19909;-83
2023/12/31 10:43:41;;;;;;;;;;;18.70;99.90;;;;;;5093220;28;19908;-81
2023/12/31 10:46:09;;;;;;;;;;;18.90;99.90;;;;;;5092721;28;20271;-82
2023/12/31 10:48:38;;;;;;;;;;;19.00;99.90;;;;;;5092951;28;20272;-82
2023/12/31 10:51:06;;;;;;;;;;;19.20;99.90;;;;;;5090841;28;20368;-82
2023/12/31 10:53:35;;;;;;;;;;;19.30;99.90;;;;;;5092520;28;19919;-82
2023/12/31 10:56:01;;;;;;;;;;;19.20;99.90;;;;;;5092546;28;20382;-82
2023/12/31 10:58:27;;;;;;;;;;;19.30;99.90;;;;;;5092456;28;19908;-82
2023/12/31 11:00:54;;;;;;;;;;;19.40;99.90;;;;;;5092181;28;19908;-81
2023/12/31 11:03:20;;;;;;;;;;;19.70;99.90;;;;;;5092381;28;20304;-82
2023/12/31 11:05:46;;;;;;;;;;;19.90;99.90;;;;;;5092557;28;20007;-83
2023/12/31 11:08:12;;;;;;;;;;;20.00;99.90;;;;;;5092115;28;19944;-82
2023/12/31 11:10:38;;;;;;;;;;;19.90;99.90;;;;;;5090605;28;19923;-81
2023/12/31 11:13:04;;;;;;;;;;;20.00;99.90;;;;;;5092166;28;19999;-81
2023/12/31 11:15:30;;;;;;;;;;;19.90;99.90;;;;;;5090622;28;19920;-81
2023/12/31 11:18:02;;;;;;;;;;;19.60;99.90;;;;;;5091554;28;20857;-82
2023/12/31 11:20:31;;;;;;;;;;;19.50;99.90;;;;;;5092513;28;19908;-81
2023/12/31 11:23:17;;;;;;;;;;;19.40;99.90;;;;;;5090746;28;20343;-82
2023/12/31 11:25:47;;;;;;;;;;;19.20;99.90;;;;;;5090565;28;19908;-77
2023/12/31 11:28:13;;;;;;;;;;;19.20;99.90;;;;;;5092386;28;20006;-78
2023/12/31 11:30:47;;;;;;;;;;;19.10;99.90;;;;;;5092536;28;20015;-77
2023/12/31 11:33:17;;;;;;;;;;;19.10;99.90;;;;;;5092130;28;19908;-79
2023/12/31 11:35:46;;;;;;;;;;;19.00;99.90;;;;;;5090745;28;19912;-79
2023/12/31 11:38:12;;;;;;;;;;;19.00;99.90;;;;;;5091693;28;19920;-79
2023/12/31 11:40:39;;;;;;;;;;;19.10;99.90;;;;;;5091804;28;19919;-80
2023/12/31 11:43:15;;;;;;;;;;;19.20;99.90;;;;;;5091895;28;20348;-75
2023/12/31 11:45:45;;;;;;;;;;;19.20;99.90;;;;;;5090551;28;19915;-80
2023/12/31 11:48:24;;;;;;;;;;;19.30;99.90;;;;;;5091841;28;20414;-79
2023/12/31 11:50:50;;;;;;;;;;;19.40;99.90;;;;;;5091577;28;19922;-79
2023/12/31 11:53:16;;;;;;;;;;;19.40;99.90;;;;;;5092308;28;19915;-80
2023/12/31 11:55:44;;;;;;;;;;;19.50;99.90;;;;;;5091672;28;19908;-79
2023/12/31 11:58:10;;;;;;;;;;;19.70;99.90;;;;;;5092031;28;20263;-79
2023/12/31 12:00:38;;;;;;;;;;;19.80;99.90;;;;;;5091320;28;20014;-79
2023/12/31 12:03:06;;;;;;;;;;;20.10;99.90;;;;;;5091403;28;19909;-80
2023/12/31 12:05:31;;;;;;;;;;;20.30;99.90;;;;;;5091561;28;20008;-79
2023/12/31 12:07:59;;;;;;;;;;;20.30;99.90;;;;;;5091939;28;19908;-79
2023/12/31 12:10:25;;;;;;;;;;;20.20;99.90;;;;;;5091151;28;19912;-79
2023/12/31 12:12:56;;;;;;;;;;;20.10;99.90;;;;;;5091781;28;19908;-79
2023/12/31 12:15:22;;;;;;;;;;;20.10;99.90;;;;;;5091754;28;20255;-80
2023/12/31 12:17:48;;;;;;;;;;;19.80;99.90;;;;;;5091660;28;20000;-79
2023/12/31 12:20:14;;;;;;;;;;;19.70;99.90;;;;;;5092671;28;20003;-80
2023/12/31 12:22:40;;;;;;;;;;;19.80;99.90;;;;;;5091536;28;19908;-79
2023/12/31 12:25:07;;;;;;;;;;;19.50;99.90;;;;;;5091679;28;20003;-80
2023/12/31 12:27:36;;;;;;;;;;;19.50;99.90;;;;;;5091765;28;20052;-79
2023/12/31 12:30:02;;;;;;;;;;;19.50;99.90;;;;;;5089952;28;19908;-79
2023/12/31 12:32:28;;;;;;;;;;;19.60;99.90;;;;;;5091600;28;20382;-79
2023/12/31 12:34:58;;;;;;;;;;;19.80;99.90;;;;;;5091231;28;19959;-78
2023/12/31 12:37:24;;;;;;;;;;;19.90;99.90;;;;;;5089273;28;19924;-80
2023/12/31 12:39:54;;;;;;;;;;;20.00;99.90;;;;;;5091335;28;19912;-79
2023/12/31 12:42:23;;;;;;;;;;;20.20;99.90;;;;;;5091320;28;20004;-79
2023/12/31 12:44:49;;;;;;;;;;;20.30;99.90;;;;;;5091343;28;19920;-80
2023/12/31 12:47:16;;;;;;;;;;;20.40;99.90;;;;;;5089810;28;19912;-79
2023/12/31 12:49:42;;;;;;;;;;;20.50;99.90;;;;;;5095380;28;19919;-80
2023/12/31 12:52:08;;;;;;;;;;;20.50;99.90;;;;;;5095121;28;19939;-79
2023/12/31 12:54:33;;;;;;;;;;;20.80;99.90;;;;;;5095159;28;19908;-78
2023/12/31 12:56:59;;;;;;;;;;;21.00;99.90;;;;;;5094681;28;19981;-78
2023/12/31 12:59:25;;;;;;;;;;;21.10;99.90;;;;;;5093106;28;19938;-78
2023/12/31 13:01:51;;;;;;;;;;;21.20;99.90;;;;;;5094453;28;20391;-79
2023/12/31 13:04:19;;;;;;;;;;;21.30;99.90;;;;;;5094643;28;19912;-79
2023/12/31 13:06:44;;;;;;;;;;;21.30;99.90;;;;;;5094965;28;19917;-79
2023/12/31 13:09:11;;;;;;;;;;;21.30;99.90;;;;;;5094500;28;19912;-79
2023/12/31 13:11:37;;;;;;;;;;;21.40;99.90;;;;;;5092929;28;19971;-79
2023/12/31 13:14:03;;;;;;;;;;;21.40;99.90;;;;;;5093069;28;20265;-78
2023/12/31 13:16:29;;;;;;;;;;;21.50;99.90;;;;;;5094204;28;19998;-79
2023/12/31 13:18:55;;;;;;;;;;;21.60;99.90;;;;;;5092834;28;20302;-79
2023/12/31 13:21:21;;;;;;;;;;;21.70;99.90;;;;;;5092907;28;19995;-79
2023/12/31 13:23:46;;;;;;;;;;;21.70;99.90;;;;;;5094291;28;19912;-79
2023/12/31 13:26:12;;;;;;;;;;;21.60;99.90;;;;;;5094390;28;19908;-79
2023/12/31 13:28:38;;;;;;;;;;;21.50;99.90;;;;;;5094325;28;19908;-77
2023/12/31 13:31:04;;;;;;;;;;;21.50;99.90;;;;;;5093956;28;19916;-79
2023/12/31 13:33:30;;;;;;;;;;;21.60;99.90;;;;;;5093886;28;19908;-78
2023/12/31 13:35:56;;;;;;;;;;;21.60;99.90;;;;;;5094039;28;20081;-79
2023/12/31 13:38:22;;;;;;;;;;;21.60;99.90;;;;;;5094128;28;19963;-78
2023/12/31 13:40:50;;;;;;;;;;;21.80;99.90;;;;;;5093910;28;19984;-79
2023/12/31 13:43:17;;;;;;;;;;;22.10;99.90;;;;;;5092934;28;19969;-79
2023/12/31 13:45:43;;;;;;;;;;;22.20;99.90;;;;;;5093650;28;20349;-79
2023/12/31 13:48:10;;;;;;;;;;;22.20;99.90;;;;;;5094182;28;19963;-79
2023/12/31 13:50:36;;;;;;;;;;;22.20;99.90;;;;;;5093692;28;20276;-79
2023/12/31 13:53:02;;;;;;;;;;;21.90;99.90;;;;;;5094143;28;19913;-79
2023/12/31 13:55:28;;;;;;;;;;;21.80;99.90;;;;;;5094378;28;19954;-79
2023/12/31 13:57:53;;;;;;;;;;;21.70;99.90;;;;;;5093658;28;20364;-80
2023/12/31 14:00:19;;;;;;;;;;;21.60;99.90;;;;;;5092036;28;19908;-80
2023/12/31 14:02:47;;;;;;;;;;;21.60;99.90;;;;;;5092074;28;19976;-79
2023/12/31 14:05:14;;;;;;;;;;;21.60;99.90;;;;;;5093504;28;19985;-79
2023/12/31 14:07:40;;;;;;;;;;;21.50;99.90;;;;;;5092069;28;19915;-79
2023/12/31 14:10:06;;;;;;;;;;;21.30;99.90;;;;;;5093536;28;19908;-79